sensor_id;sensor_type;location;lat;lon;timestamp;temperature;humidity
39849;DHT22;25518;47.878;15.914;2023-04-15T00:00:39;2.80;99.90
39849;DHT22;25518;47.878;15.914;2023-04-15T00:03:29;2.20;99.90
39849;DHT22;25518;47.878;15.914;2023-04-15T00:06:19;3.00;99.90
39849;DHT22;25518;47.878;15.914;2023-04-15T00:09:09;3.00;99.90
39849;DHT22;25518;47.878;15.914;2023-04-15T00:11:59;3.10;99.90
39849;DHT22;25518;47.878;15.914;2023-04-15T00:14:50;2.80;99.90
39849;DHT22;25518;47.878;15.914;2023-04-15T00:17:39;2.90;99.90
39849;DHT22;25518;47.878;15.914;2023-04-15T00:20:29;2.90;99.90
39849;DHT22;25518;47.878;15.914;2023-04-15T00:23:18;2.90;99.90
39849;DHT22;25518;47.878;15.914;2023-04-15T00:26:08;3.00;99.90
39849;DHT22;25518;47.878;15.914;2023-04-15T00:28:58;2.90;99.90
39849;DHT22;25518;47.878;15.914;2023-04-15T00:31:47;3.00;99.90
39849;DHT22;25518;47.878;15.914;2023-04-15T00:34:37;3.00;99.90
39849;DHT22;25518;47.878;15.914;2023-04-15T00:37:27;3.00;99.90
39849;DHT22;25518;47.878;15.914;2023-04-15T00:40:18;3.10;99.90
39849;DHT22;25518;47.878;15.914;2023-04-15T00:43:09;3.00;99.90
39849;DHT22;25518;47.878;15.914;2023-04-15T00:46:00;3.00;99.90
39849;DHT22;25518;47.878;15.914;2023-04-15T00:48:53;3.10;99.90
39849;DHT22;25518;47.878;15.914;2023-04-15T00:51:42;3.00;99.90
39849;DHT22;25518;47.878;15.914;2023-04-15T00:54:33;2.90;99.90
39849;DHT22;25518;47.878;15.914;2023-04-15T00:57:23;2.90;99.90
39849;DHT22;25518;47.878;15.914;2023-04-15T01:00:12;2.80;99.90
39849;DHT22;25518;47.878;15.914;2023-04-15T01:03:02;2.80;99.90
39849;DHT22;25518;47.878;15.914;2023-04-15T01:05:52;2.80;99.90
39849;DHT22;25518;47.878;15.914;2023-04-15T01:08:46;3.00;99.90
39849;DHT22;25518;47.878;15.914;2023-04-15T01:11:36;3.00;99.90
39849;DHT22;25518;47.878;15.914;2023-04-15T01:14:25;2.90;99.90
39849;DHT22;25518;47.878;15.914;2023-04-15T01:17:16;2.90;99.90
39849;DHT22;25518;47.878;15.914;2023-04-15T01:20:06;3.10;99.90
39849;DHT22;25518;47.878;15.914;2023-04-15T01:22:58;3.20;99.90
39849;DHT22;25518;47.878;15.914;2023-04-15T01:25:48;3.10;99.90
39849;DHT22;25518;47.878;15.914;2023-04-15T01:28:39;3.30;99.90
39849;DHT22;25518;47.878;15.914;2023-04-15T01:31:28;3.20;99.90
39849;DHT22;25518;47.878;15.914;2023-04-15T01:34:18;3.20;99.90
39849;DHT22;25518;47.878;15.914;2023-04-15T01:37:08;3.10;99.90
39849;DHT22;25518;47.878;15.914;2023-04-15T01:39:57;3.20;99.90
39849;DHT22;25518;47.878;15.914;2023-04-15T01:42:47;3.30;99.90
39849;DHT22;25518;47.878;15.914;2023-04-15T01:45:36;3.30;99.90
39849;DHT22;25518;47.878;15.914;2023-04-15T01:48:26;3.30;99.90
39849;DHT22;25518;47.878;15.914;2023-04-15T01:51:15;3.20;99.90
39849;DHT22;25518;47.878;15.914;2023-04-15T01:54:05;3.30;99.90
39849;DHT22;25518;47.878;15.914;2023-04-15T01:56:55;3.40;99.90
39849;DHT22;25518;47.878;15.914;2023-04-15T01:59:45;3.30;99.90
39849;DHT22;25518;47.878;15.914;2023-04-15T02:02:35;3.20;99.90
39849;DHT22;25518;47.878;15.914;2023-04-15T02:05:25;3.20;99.90
39849;DHT22;25518;47.878;15.914;2023-04-15T02:08:14;3.10;99.90
39849;DHT22;25518;47.878;15.914;2023-04-15T02:11:04;3.20;99.90
39849;DHT22;25518;47.878;15.914;2023-04-15T02:13:54;3.20;99.90
39849;DHT22;25518;47.878;15.914;2023-04-15T02:16:44;3.20;99.90
39849;DHT22;25518;47.878;15.914;2023-04-15T02:19:34;3.20;99.90
39849;DHT22;25518;47.878;15.914;2023-04-15T02:22:24;3.30;99.90
39849;DHT22;25518;47.878;15.914;2023-04-15T02:25:14;3.30;99.90
39849;DHT22;25518;47.878;15.914;2023-04-15T02:28:05;3.10;99.90
39849;DHT22;25518;47.878;15.914;2023-04-15T02:30:55;3.30;99.90
39849;DHT22;25518;47.878;15.914;2023-04-15T02:33:45;3.40;99.90
39849;DHT22;25518;47.878;15.914;2023-04-15T02:36:35;3.00;99.90
39849;DHT22;25518;47.878;15.914;2023-04-15T02:39:25;3.40;99.90
39849;DHT22;25518;47.878;15.914;2023-04-15T02:42:15;3.30;99.90
39849;DHT22;25518;47.878;15.914;2023-04-15T02:45:06;3.40;99.90
39849;DHT22;25518;47.878;15.914;2023-04-15T02:47:56;3.40;99.90
39849;DHT22;25518;47.878;15.914;2023-04-15T02:50:46;3.40;99.90
39849;DHT22;25518;47.878;15.914;2023-04-15T02:53:36;3.40;99.90
39849;DHT22;25518;47.878;15.914;2023-04-15T02:56:25;3.30;99.90
39849;DHT22;25518;47.878;15.914;2023-04-15T02:59:15;3.30;99.90
39849;DHT22;25518;47.878;15.914;2023-04-15T03:19:03;3.40;99.90
39849;DHT22;25518;47.878;15.914;2023-04-15T03:21:53;3.30;99.90
39849;DHT22;25518;47.878;15.914;2023-04-15T03:24:43;3.40;99.90
39849;DHT22;25518;47.878;15.914;2023-04-15T03:27:32;3.30;99.90
39849;DHT22;25518;47.878;15.914;2023-04-15T03:30:22;3.30;99.90
39849;DHT22;25518;47.878;15.914;2023-04-15T03:33:11;3.40;99.90
39849;DHT22;25518;47.878;15.914;2023-04-15T03:36:01;3.30;99.90
39849;DHT22;25518;47.878;15.914;2023-04-15T03:38:50;3.30;99.90
39849;DHT22;25518;47.878;15.914;2023-04-15T03:41:41;3.30;99.90
39849;DHT22;25518;47.878;15.914;2023-04-15T03:44:30;3.40;99.90
39849;DHT22;25518;47.878;15.914;2023-04-15T03:47:21;3.20;99.90
39849;DHT22;25518;47.878;15.914;2023-04-15T03:50:10;3.20;99.90
39849;DHT22;25518;47.878;15.914;2023-04-15T03:53:00;3.20;99.90
39849;DHT22;25518;47.878;15.914;2023-04-15T03:55:50;3.20;99.90
39849;DHT22;25518;47.878;15.914;2023-04-15T03:58:39;3.30;99.90
39849;DHT22;25518;47.878;15.914;2023-04-15T04:01:29;3.20;99.90
39849;DHT22;25518;47.878;15.914;2023-04-15T04:04:19;3.30;99.90
39849;DHT22;25518;47.878;15.914;2023-04-15T04:07:15;3.40;99.90
39849;DHT22;25518;47.878;15.914;2023-04-15T04:10:05;3.30;99.90
39849;DHT22;25518;47.878;15.914;2023-04-15T04:12:55;3.40;99.90
39849;DHT22;25518;47.878;15.914;2023-04-15T04:15:44;3.40;99.90
39849;DHT22;25518;47.878;15.914;2023-04-15T04:18:34;3.40;99.90
39849;DHT22;25518;47.878;15.914;2023-04-15T04:21:25;3.30;99.90
39849;DHT22;25518;47.878;15.914;2023-04-15T04:24:15;3.40;99.90
39849;DHT22;25518;47.878;15.914;2023-04-15T04:27:05;3.50;99.90
39849;DHT22;25518;47.878;15.914;2023-04-15T04:29:54;3.50;99.90
39849;DHT22;25518;47.878;15.914;2023-04-15T04:32:44;3.40;99.90
39849;DHT22;25518;47.878;15.914;2023-04-15T04:35:34;3.50;99.90
39849;DHT22;25518;47.878;15.914;2023-04-15T04:38:25;3.50;99.90
39849;DHT22;25518;47.878;15.914;2023-04-15T04:41:15;3.50;99.90
39849;DHT22;25518;47.878;15.914;2023-04-15T04:44:05;3.50;99.90
39849;DHT22;25518;47.878;15.914;2023-04-15T04:46:55;3.50;99.90
39849;DHT22;25518;47.878;15.914;2023-04-15T04:49:45;3.50;99.90
39849;DHT22;25518;47.878;15.914;2023-04-15T04:52:35;3.50;99.90
39849;DHT22;25518;47.878;15.914;2023-04-15T04:55:25;3.50;99.90
39849;DHT22;25518;47.878;15.914;2023-04-15T04:58:15;3.50;99.90
39849;DHT22;25518;47.878;15.914;2023-04-15T05:01:05;3.50;99.90
39849;DHT22;25518;47.878;15.914;2023-04-15T05:03:54;3.60;99.90
39849;DHT22;25518;47.878;15.914;2023-04-15T05:06:44;3.50;99.90
39849;DHT22;25518;47.878;15.914;2023-04-15T05:09:34;3.60;99.90
39849;DHT22;25518;47.878;15.914;2023-04-15T05:12:25;3.60;99.90
39849;DHT22;25518;47.878;15.914;2023-04-15T05:15:14;3.60;99.90
39849;DHT22;25518;47.878;15.914;2023-04-15T05:18:04;3.60;99.90
39849;DHT22;25518;47.878;15.914;2023-04-15T05:20:54;3.60;99.90
39849;DHT22;25518;47.878;15.914;2023-04-15T05:23:44;3.60;99.90
39849;DHT22;25518;47.878;15.914;2023-04-15T05:26:34;3.70;99.90
39849;DHT22;25518;47.878;15.914;2023-04-15T05:29:24;3.60;99.90
39849;DHT22;25518;47.878;15.914;2023-04-15T05:32:13;3.60;99.90
39849;DHT22;25518;47.878;15.914;2023-04-15T05:35:03;3.70;99.90
39849;DHT22;25518;47.878;15.914;2023-04-15T05:37:53;3.60;99.90
39849;DHT22;25518;47.878;15.914;2023-04-15T05:40:42;3.60;99.90
39849;DHT22;25518;47.878;15.914;2023-04-15T05:43:32;3.70;99.90
39849;DHT22;25518;47.878;15.914;2023-04-15T05:46:22;3.70;99.90
39849;DHT22;25518;47.878;15.914;2023-04-15T05:49:11;3.70;99.90
39849;DHT22;25518;47.878;15.914;2023-04-15T05:52:01;3.80;99.90
39849;DHT22;25518;47.878;15.914;2023-04-15T05:54:51;3.60;99.90
39849;DHT22;25518;47.878;15.914;2023-04-15T05:57:40;3.80;99.90
39849;DHT22;25518;47.878;15.914;2023-04-15T06:00:30;3.70;99.90
39849;DHT22;25518;47.878;15.914;2023-04-15T06:03:20;3.80;99.90
39849;DHT22;25518;47.878;15.914;2023-04-15T06:06:11;3.80;99.90
39849;DHT22;25518;47.878;15.914;2023-04-15T06:09:00;3.80;99.90
39849;DHT22;25518;47.878;15.914;2023-04-15T06:11:51;3.80;99.90
39849;DHT22;25518;47.878;15.914;2023-04-15T06:14:41;3.80;99.90
39849;DHT22;25518;47.878;15.914;2023-04-15T06:17:30;3.90;99.90
39849;DHT22;25518;47.878;15.914;2023-04-15T06:20:20;3.80;99.90
39849;DHT22;25518;47.878;15.914;2023-04-15T06:23:09;3.80;99.90
39849;DHT22;25518;47.878;15.914;2023-04-15T06:25:59;3.80;99.90
39849;DHT22;25518;47.878;15.914;2023-04-15T06:28:48;3.90;99.90
39849;DHT22;25518;47.878;15.914;2023-04-15T06:31:38;4.00;99.90
39849;DHT22;25518;47.878;15.914;2023-04-15T06:34:27;4.00;99.90
39849;DHT22;25518;47.878;15.914;2023-04-15T06:37:17;4.00;99.90
39849;DHT22;25518;47.878;15.914;2023-04-15T06:40:07;4.20;99.90
39849;DHT22;25518;47.878;15.914;2023-04-15T06:42:57;4.20;99.90
39849;DHT22;25518;47.878;15.914;2023-04-15T06:45:46;4.20;99.90
39849;DHT22;25518;47.878;15.914;2023-04-15T06:48:36;4.20;99.90
39849;DHT22;25518;47.878;15.914;2023-04-15T06:51:26;4.20;99.90
39849;DHT22;25518;47.878;15.914;2023-04-15T06:54:16;4.20;99.90
39849;DHT22;25518;47.878;15.914;2023-04-15T06:57:06;4.20;99.90
39849;DHT22;25518;47.878;15.914;2023-04-15T06:59:57;4.10;99.90
39849;DHT22;25518;47.878;15.914;2023-04-15T07:02:47;4.30;99.90
39849;DHT22;25518;47.878;15.914;2023-04-15T07:05:36;4.10;99.90
39849;DHT22;25518;47.878;15.914;2023-04-15T07:08:26;4.10;99.90
39849;DHT22;25518;47.878;15.914;2023-04-15T07:11:16;4.20;99.90
39849;DHT22;25518;47.878;15.914;2023-04-15T07:14:07;4.10;99.90
39849;DHT22;25518;47.878;15.914;2023-04-15T07:16:56;4.10;99.90
39849;DHT22;25518;47.878;15.914;2023-04-15T07:19:46;4.00;99.90
39849;DHT22;25518;47.878;15.914;2023-04-15T07:22:36;4.00;99.90
39849;DHT22;25518;47.878;15.914;2023-04-15T07:25:25;3.70;99.90
39849;DHT22;25518;47.878;15.914;2023-04-15T07:28:15;4.10;99.90
39849;DHT22;25518;47.878;15.914;2023-04-15T07:31:05;4.20;99.90
39849;DHT22;25518;47.878;15.914;2023-04-15T07:33:55;4.20;99.90
39849;DHT22;25518;47.878;15.914;2023-04-15T07:36:45;4.20;99.90
39849;DHT22;25518;47.878;15.914;2023-04-15T07:39:39;4.30;99.90
39849;DHT22;25518;47.878;15.914;2023-04-15T07:42:28;4.40;99.90
39849;DHT22;25518;47.878;15.914;2023-04-15T07:45:18;4.50;99.90
39849;DHT22;25518;47.878;15.914;2023-04-15T07:48:07;4.40;99.90
39849;DHT22;25518;47.878;15.914;2023-04-15T07:50:58;4.50;99.90
39849;DHT22;25518;47.878;15.914;2023-04-15T07:53:49;4.40;99.90
39849;DHT22;25518;47.878;15.914;2023-04-15T07:56:38;4.30;99.90
39849;DHT22;25518;47.878;15.914;2023-04-15T07:59:29;4.40;99.90
39849;DHT22;25518;47.878;15.914;2023-04-15T08:02:19;4.50;99.90
39849;DHT22;25518;47.878;15.914;2023-04-15T08:05:10;4.70;99.90
39849;DHT22;25518;47.878;15.914;2023-04-15T08:07:59;4.30;99.90
39849;DHT22;25518;47.878;15.914;2023-04-15T08:10:50;4.40;99.90
39849;DHT22;25518;47.878;15.914;2023-04-15T08:13:40;4.60;99.90
39849;DHT22;25518;47.878;15.914;2023-04-15T08:16:29;4.60;99.90
39849;DHT22;25518;47.878;15.914;2023-04-15T08:19:19;4.60;99.90
39849;DHT22;25518;47.878;15.914;2023-04-15T08:22:09;4.60;99.90
39849;DHT22;25518;47.878;15.914;2023-04-15T08:25:00;4.70;99.90
39849;DHT22;25518;47.878;15.914;2023-04-15T08:27:49;4.70;99.90
39849;DHT22;25518;47.878;15.914;2023-04-15T08:30:39;4.70;99.90
39849;DHT22;25518;47.878;15.914;2023-04-15T08:33:29;4.90;99.90
39849;DHT22;25518;47.878;15.914;2023-04-15T08:36:19;4.90;99.90
39849;DHT22;25518;47.878;15.914;2023-04-15T08:39:08;5.00;99.90
39849;DHT22;25518;47.878;15.914;2023-04-15T08:42:00;4.90;99.90
39849;DHT22;25518;47.878;15.914;2023-04-15T08:44:50;5.10;99.90
39849;DHT22;25518;47.878;15.914;2023-04-15T08:47:42;5.00;99.90
39849;DHT22;25518;47.878;15.914;2023-04-15T08:50:34;5.10;99.90
39849;DHT22;25518;47.878;15.914;2023-04-15T08:53:24;5.10;99.90
39849;DHT22;25518;47.878;15.914;2023-04-15T08:56:15;5.10;99.90
39849;DHT22;25518;47.878;15.914;2023-04-15T08:59:06;4.90;99.90
39849;DHT22;25518;47.878;15.914;2023-04-15T09:01:56;5.10;99.90
39849;DHT22;25518;47.878;15.914;2023-04-15T09:04:47;5.40;99.90
39849;DHT22;25518;47.878;15.914;2023-04-15T09:07:36;5.50;99.90
39849;DHT22;25518;47.878;15.914;2023-04-15T09:10:27;5.50;99.90
39849;DHT22;25518;47.878;15.914;2023-04-15T09:13:17;5.40;99.90
39849;DHT22;25518;47.878;15.914;2023-04-15T09:16:06;5.30;99.90
39849;DHT22;25518;47.878;15.914;2023-04-15T09:18:56;5.20;99.90
39849;DHT22;25518;47.878;15.914;2023-04-15T09:21:46;5.50;99.90
39849;DHT22;25518;47.878;15.914;2023-04-15T09:24:38;5.50;99.90
39849;DHT22;25518;47.878;15.914;2023-04-15T09:27:29;5.60;99.90
39849;DHT22;25518;47.878;15.914;2023-04-15T09:30:19;5.60;99.90
39849;DHT22;25518;47.878;15.914;2023-04-15T09:33:08;5.60;99.90
39849;DHT22;25518;47.878;15.914;2023-04-15T09:36:02;5.50;99.90
39849;DHT22;25518;47.878;15.914;2023-04-15T09:38:58;5.60;99.90
39849;DHT22;25518;47.878;15.914;2023-04-15T09:42:05;5.70;99.90
39849;DHT22;25518;47.878;15.914;2023-04-15T09:44:55;5.70;99.90
39849;DHT22;25518;47.878;15.914;2023-04-15T09:47:57;5.90;99.90
39849;DHT22;25518;47.878;15.914;2023-04-15T09:50:48;5.80;99.90
39849;DHT22;25518;47.878;15.914;2023-04-15T09:53:38;6.00;99.90
39849;DHT22;25518;47.878;15.914;2023-04-15T09:56:38;6.00;99.90
39849;DHT22;25518;47.878;15.914;2023-04-15T09:59:30;6.00;99.90
39849;DHT22;25518;47.878;15.914;2023-04-15T10:02:20;6.10;99.90
39849;DHT22;25518;47.878;15.914;2023-04-15T10:05:13;6.10;99.90
39849;DHT22;25518;47.878;15.914;2023-04-15T10:08:04;6.20;99.90
39849;DHT22;25518;47.878;15.914;2023-04-15T10:10:54;6.10;99.90
39849;DHT22;25518;47.878;15.914;2023-04-15T10:13:45;6.00;99.90
39849;DHT22;25518;47.878;15.914;2023-04-15T10:16:38;6.10;99.90
39849;DHT22;25518;47.878;15.914;2023-04-15T10:19:32;6.00;99.90
39849;DHT22;25518;47.878;15.914;2023-04-15T10:22:23;5.60;99.90
39849;DHT22;25518;47.878;15.914;2023-04-15T10:25:14;5.50;99.90
39849;DHT22;25518;47.878;15.914;2023-04-15T10:28:06;5.90;99.90
39849;DHT22;25518;47.878;15.914;2023-04-15T10:30:58;5.90;99.90
39849;DHT22;25518;47.878;15.914;2023-04-15T10:33:48;5.80;99.90
39849;DHT22;25518;47.878;15.914;2023-04-15T10:36:39;5.80;99.90
39849;DHT22;25518;47.878;15.914;2023-04-15T10:42:33;5.90;99.90
39849;DHT22;25518;47.878;15.914;2023-04-15T10:45:26;5.90;99.90
39849;DHT22;25518;47.878;15.914;2023-04-15T10:48:16;5.90;99.90
39849;DHT22;25518;47.878;15.914;2023-04-15T10:51:06;6.00;99.90
39849;DHT22;25518;47.878;15.914;2023-04-15T10:53:59;6.10;99.90
39849;DHT22;25518;47.878;15.914;2023-04-15T10:56:51;6.10;99.90
39849;DHT22;25518;47.878;15.914;2023-04-15T11:02:53;6.20;99.90
39849;DHT22;25518;47.878;15.914;2023-04-15T11:05:49;6.30;99.90
39849;DHT22;25518;47.878;15.914;2023-04-15T11:08:57;6.40;99.90
39849;DHT22;25518;47.878;15.914;2023-04-15T11:12:08;6.60;99.90
39849;DHT22;25518;47.878;15.914;2023-04-15T11:14:58;6.50;99.90
39849;DHT22;25518;47.878;15.914;2023-04-15T11:17:48;6.60;99.90
39849;DHT22;25518;47.878;15.914;2023-04-15T11:20:39;6.60;99.90
39849;DHT22;25518;47.878;15.914;2023-04-15T11:23:39;6.50;99.90
39849;DHT22;25518;47.878;15.914;2023-04-15T11:26:29;6.70;99.90
39849;DHT22;25518;47.878;15.914;2023-04-15T11:29:19;6.90;99.90
39849;DHT22;25518;47.878;15.914;2023-04-15T11:32:09;6.90;99.90
39849;DHT22;25518;47.878;15.914;2023-04-15T11:34:58;6.80;99.90
39849;DHT22;25518;47.878;15.914;2023-04-15T11:37:49;6.80;99.90
39849;DHT22;25518;47.878;15.914;2023-04-15T11:40:39;6.50;99.90
39849;DHT22;25518;47.878;15.914;2023-04-15T11:43:31;6.40;99.90
39849;DHT22;25518;47.878;15.914;2023-04-15T11:46:27;6.50;99.90
39849;DHT22;25518;47.878;15.914;2023-04-15T11:49:32;6.50;99.90
39849;DHT22;25518;47.878;15.914;2023-04-15T11:52:23;6.50;99.90
39849;DHT22;25518;47.878;15.914;2023-04-15T11:55:14;6.60;99.90
39849;DHT22;25518;47.878;15.914;2023-04-15T11:58:21;6.60;99.90
39849;DHT22;25518;47.878;15.914;2023-04-15T12:01:11;6.60;99.90
39849;DHT22;25518;47.878;15.914;2023-04-15T12:04:01;6.90;99.90
39849;DHT22;25518;47.878;15.914;2023-04-15T12:07:04;6.90;99.90
39849;DHT22;25518;47.878;15.914;2023-04-15T12:09:56;7.10;99.90
39849;DHT22;25518;47.878;15.914;2023-04-15T12:12:48;7.30;99.90
39849;DHT22;25518;47.878;15.914;2023-04-15T12:15:38;7.30;99.90
39849;DHT22;25518;47.878;15.914;2023-04-15T12:18:28;7.30;99.90
39849;DHT22;25518;47.878;15.914;2023-04-15T12:21:19;7.10;99.90
39849;DHT22;25518;47.878;15.914;2023-04-15T12:24:10;7.40;99.90
39849;DHT22;25518;47.878;15.914;2023-04-15T12:30:03;7.60;99.90
39849;DHT22;25518;47.878;15.914;2023-04-15T12:32:53;7.90;99.90
39849;DHT22;25518;47.878;15.914;2023-04-15T12:35:43;7.90;99.90
39849;DHT22;25518;47.878;15.914;2023-04-15T12:38:33;8.10;99.90
39849;DHT22;25518;47.878;15.914;2023-04-15T12:41:22;8.00;99.90
39849;DHT22;25518;47.878;15.914;2023-04-15T12:44:12;8.10;99.90
39849;DHT22;25518;47.878;15.914;2023-04-15T12:47:02;8.10;99.90
39849;DHT22;25518;47.878;15.914;2023-04-15T12:49:52;8.20;99.90
39849;DHT22;25518;47.878;15.914;2023-04-15T12:52:42;8.10;99.90
39849;DHT22;25518;47.878;15.914;2023-04-15T12:55:32;7.70;99.90
39849;DHT22;25518;47.878;15.914;2023-04-15T12:58:21;7.90;99.90
39849;DHT22;25518;47.878;15.914;2023-04-15T13:01:11;8.00;99.90
39849;DHT22;25518;47.878;15.914;2023-04-15T13:04:01;8.00;99.90
39849;DHT22;25518;47.878;15.914;2023-04-15T13:06:50;7.90;99.90
39849;DHT22;25518;47.878;15.914;2023-04-15T13:09:40;8.00;99.90
39849;DHT22;25518;47.878;15.914;2023-04-15T13:12:30;8.00;99.90
39849;DHT22;25518;47.878;15.914;2023-04-15T13:15:21;8.10;99.90
39849;DHT22;25518;47.878;15.914;2023-04-15T13:18:11;8.20;99.90
39849;DHT22;25518;47.878;15.914;2023-04-15T13:21:01;8.20;99.90
39849;DHT22;25518;47.878;15.914;2023-04-15T13:23:52;8.20;99.90
39849;DHT22;25518;47.878;15.914;2023-04-15T13:26:42;8.10;99.90
39849;DHT22;25518;47.878;15.914;2023-04-15T13:29:32;8.00;99.90
39849;DHT22;25518;47.878;15.914;2023-04-15T13:32:22;8.20;99.90
39849;DHT22;25518;47.878;15.914;2023-04-15T13:35:12;8.00;99.90
39849;DHT22;25518;47.878;15.914;2023-04-15T13:38:01;8.10;99.90
39849;DHT22;25518;47.878;15.914;2023-04-15T13:40:51;8.20;99.90
39849;DHT22;25518;47.878;15.914;2023-04-15T13:43:41;8.30;99.90
39849;DHT22;25518;47.878;15.914;2023-04-15T13:46:31;8.40;99.90
39849;DHT22;25518;47.878;15.914;2023-04-15T13:49:21;8.40;99.90
39849;DHT22;25518;47.878;15.914;2023-04-15T13:52:12;8.40;99.90
39849;DHT22;25518;47.878;15.914;2023-04-15T13:55:02;8.30;99.90
39849;DHT22;25518;47.878;15.914;2023-04-15T13:57:52;8.20;99.90
39849;DHT22;25518;47.878;15.914;2023-04-15T14:00:42;8.40;99.90
39849;DHT22;25518;47.878;15.914;2023-04-15T14:03:32;8.30;99.90
39849;DHT22;25518;47.878;15.914;2023-04-15T14:06:22;8.30;99.90
39849;DHT22;25518;47.878;15.914;2023-04-15T14:09:11;8.40;99.90
39849;DHT22;25518;47.878;15.914;2023-04-15T14:12:01;8.20;99.90
39849;DHT22;25518;47.878;15.914;2023-04-15T14:14:50;8.10;99.90
39849;DHT22;25518;47.878;15.914;2023-04-15T14:17:40;8.20;99.90
39849;DHT22;25518;47.878;15.914;2023-04-15T14:20:30;8.30;99.90
39849;DHT22;25518;47.878;15.914;2023-04-15T14:23:20;8.10;99.90
39849;DHT22;25518;47.878;15.914;2023-04-15T14:26:10;8.00;99.90
39849;DHT22;25518;47.878;15.914;2023-04-15T14:28:59;7.90;99.90
39849;DHT22;25518;47.878;15.914;2023-04-15T14:31:49;7.70;99.90
39849;DHT22;25518;47.878;15.914;2023-04-15T14:34:39;7.40;99.90
39849;DHT22;25518;47.878;15.914;2023-04-15T14:37:29;7.80;99.90
39849;DHT22;25518;47.878;15.914;2023-04-15T14:40:18;7.90;99.90
39849;DHT22;25518;47.878;15.914;2023-04-15T14:43:08;7.90;99.90
39849;DHT22;25518;47.878;15.914;2023-04-15T14:45:58;7.80;99.90
39849;DHT22;25518;47.878;15.914;2023-04-15T14:48:47;7.90;99.90
39849;DHT22;25518;47.878;15.914;2023-04-15T14:51:37;8.20;99.90
39849;DHT22;25518;47.878;15.914;2023-04-15T14:54:27;8.40;99.90
39849;DHT22;25518;47.878;15.914;2023-04-15T14:57:17;8.30;99.90
39849;DHT22;25518;47.878;15.914;2023-04-15T15:00:08;8.30;99.90
39849;DHT22;25518;47.878;15.914;2023-04-15T15:02:58;8.40;99.90
39849;DHT22;25518;47.878;15.914;2023-04-15T15:05:48;8.30;99.90
39849;DHT22;25518;47.878;15.914;2023-04-15T15:08:37;8.20;99.90
39849;DHT22;25518;47.878;15.914;2023-04-15T15:11:27;8.40;99.90
39849;DHT22;25518;47.878;15.914;2023-04-15T15:14:17;8.30;99.90
39849;DHT22;25518;47.878;15.914;2023-04-15T15:17:08;8.30;99.90
39849;DHT22;25518;47.878;15.914;2023-04-15T15:19:58;8.20;99.90
39849;DHT22;25518;47.878;15.914;2023-04-15T15:22:47;8.00;99.90
39849;DHT22;25518;47.878;15.914;2023-04-15T15:25:37;8.10;99.90
39849;DHT22;25518;47.878;15.914;2023-04-15T15:28:26;8.10;99.90
39849;DHT22;25518;47.878;15.914;2023-04-15T15:31:16;8.10;99.90
39849;DHT22;25518;47.878;15.914;2023-04-15T15:34:05;8.00;99.90
39849;DHT22;25518;47.878;15.914;2023-04-15T15:36:55;8.10;99.90
39849;DHT22;25518;47.878;15.914;2023-04-15T15:39:45;8.00;99.90
39849;DHT22;25518;47.878;15.914;2023-04-15T15:42:35;8.10;99.90
39849;DHT22;25518;47.878;15.914;2023-04-15T15:45:24;8.10;99.90
39849;DHT22;25518;47.878;15.914;2023-04-15T15:48:14;8.10;99.90
39849;DHT22;25518;47.878;15.914;2023-04-15T15:51:04;8.00;99.90
39849;DHT22;25518;47.878;15.914;2023-04-15T15:53:54;7.90;99.90
39849;DHT22;25518;47.878;15.914;2023-04-15T15:56:44;8.00;99.90
39849;DHT22;25518;47.878;15.914;2023-04-15T15:59:33;7.80;99.90
39849;DHT22;25518;47.878;15.914;2023-04-15T16:02:23;7.60;99.90
39849;DHT22;25518;47.878;15.914;2023-04-15T16:05:13;7.60;99.90
39849;DHT22;25518;47.878;15.914;2023-04-15T16:08:03;7.40;99.90
39849;DHT22;25518;47.878;15.914;2023-04-15T16:10:53;7.40;99.90
39849;DHT22;25518;47.878;15.914;2023-04-15T16:13:43;7.30;99.90
39849;DHT22;25518;47.878;15.914;2023-04-15T16:16:33;7.20;99.90
39849;DHT22;25518;47.878;15.914;2023-04-15T16:19:23;7.20;99.90
39849;DHT22;25518;47.878;15.914;2023-04-15T16:22:13;7.30;99.90
39849;DHT22;25518;47.878;15.914;2023-04-15T16:25:02;7.20;99.90
39849;DHT22;25518;47.878;15.914;2023-04-15T16:27:52;7.20;99.90
39849;DHT22;25518;47.878;15.914;2023-04-15T16:30:41;7.10;99.90
39849;DHT22;25518;47.878;15.914;2023-04-15T16:33:32;6.90;99.90
39849;DHT22;25518;47.878;15.914;2023-04-15T16:36:21;6.90;99.90
39849;DHT22;25518;47.878;15.914;2023-04-15T16:39:11;7.00;99.90
39849;DHT22;25518;47.878;15.914;2023-04-15T16:42:01;6.90;99.90
39849;DHT22;25518;47.878;15.914;2023-04-15T16:44:51;6.90;99.90
39849;DHT22;25518;47.878;15.914;2023-04-15T16:47:41;6.80;99.90
39849;DHT22;25518;47.878;15.914;2023-04-15T16:50:30;6.80;99.90
39849;DHT22;25518;47.878;15.914;2023-04-15T16:53:20;6.80;99.90
39849;DHT22;25518;47.878;15.914;2023-04-15T16:56:09;6.70;99.90
39849;DHT22;25518;47.878;15.914;2023-04-15T16:58:59;6.70;99.90
39849;DHT22;25518;47.878;15.914;2023-04-15T17:01:48;6.70;99.90
39849;DHT22;25518;47.878;15.914;2023-04-15T17:04:38;6.70;99.90
39849;DHT22;25518;47.878;15.914;2023-04-15T17:07:28;6.80;99.90
39849;DHT22;25518;47.878;15.914;2023-04-15T17:10:18;6.80;99.90
39849;DHT22;25518;47.878;15.914;2023-04-15T17:13:07;6.70;99.90
39849;DHT22;25518;47.878;15.914;2023-04-15T17:15:57;6.70;99.90
39849;DHT22;25518;47.878;15.914;2023-04-15T17:18:46;6.50;99.90
39849;DHT22;25518;47.878;15.914;2023-04-15T17:21:38;6.60;99.90
39849;DHT22;25518;47.878;15.914;2023-04-15T17:24:28;5.50;99.90
39849;DHT22;25518;47.878;15.914;2023-04-15T17:27:21;6.40;99.90
39849;DHT22;25518;47.878;15.914;2023-04-15T17:30:11;6.50;99.90
39849;DHT22;25518;47.878;15.914;2023-04-15T17:33:00;6.00;99.90
39849;DHT22;25518;47.878;15.914;2023-04-15T17:35:50;6.30;99.90
39849;DHT22;25518;47.878;15.914;2023-04-15T17:38:39;6.30;99.90
39849;DHT22;25518;47.878;15.914;2023-04-15T17:41:29;6.40;99.90
39849;DHT22;25518;47.878;15.914;2023-04-15T17:44:19;6.30;99.90
39849;DHT22;25518;47.878;15.914;2023-04-15T17:47:08;6.30;99.90
39849;DHT22;25518;47.878;15.914;2023-04-15T17:49:58;6.20;99.90
39849;DHT22;25518;47.878;15.914;2023-04-15T17:52:48;6.00;99.90
39849;DHT22;25518;47.878;15.914;2023-04-15T17:55:38;6.00;99.90
39849;DHT22;25518;47.878;15.914;2023-04-15T17:58:28;6.00;99.90
39849;DHT22;25518;47.878;15.914;2023-04-15T18:01:18;5.90;99.90
39849;DHT22;25518;47.878;15.914;2023-04-15T18:04:08;5.80;99.90
39849;DHT22;25518;47.878;15.914;2023-04-15T18:06:58;5.80;99.90
39849;DHT22;25518;47.878;15.914;2023-04-15T18:09:47;5.70;99.90
39849;DHT22;25518;47.878;15.914;2023-04-15T18:12:39;5.70;99.90
39849;DHT22;25518;47.878;15.914;2023-04-15T18:15:30;5.60;99.90
39849;DHT22;25518;47.878;15.914;2023-04-15T18:18:19;5.60;99.90
39849;DHT22;25518;47.878;15.914;2023-04-15T18:21:09;5.60;99.90